Gdansk, Poland
Current Conditions -  °F | °C
As of 5:00 AM on Wednesday 22 Oct 2014 (Local Time) from EPGD Reporting Station
Light Fog Light Fog  
Wind Chill: 50°   Ceiling: 200
Heat Index: 50°   Visibility: 0.62mi
Dew Point: 50°   Wind: 7mph
Humidity: 100%   Direction: 120°ESE
Pressure: 29.53"   Gusts: NA
Location:  54.36°N, 18.64°E
Report Text: EPGD 220300Z 12006KT 1000 R29/0800 BCFG BR VV002 10/10 Q1000
Loading
Personal Weather Stations






























Interactive Weather Map
Tropical Storm Tracking
New forecast layout! Learn more

10-Day Weather Forecast

Advertisements
Track Severe Weather on mobile